createdAt,value
2022-11-16T08:17:48.663Z,14.57
2022-11-16T08:20:19.935Z,14.60
2022-11-16T08:22:50.698Z,14.45
2022-11-16T08:25:20.773Z,15.63
2022-11-16T08:27:49.553Z,16.33
2022-11-16T08:30:21.816Z,15.30
2022-11-16T08:32:49.662Z,15.52
2022-11-16T08:35:18.221Z,17.38
2022-11-16T08:37:47.578Z,23.80
2022-11-16T08:40:17.001Z,16.48
2022-11-16T08:42:44.810Z,18.92
2022-11-16T08:45:13.917Z,19.25
2022-11-16T08:47:42.520Z,18.38
2022-11-16T08:50:11.711Z,15.40
2022-11-16T08:52:40.010Z,16.05
2022-11-16T08:55:08.851Z,15.35
2022-11-16T08:57:37.218Z,19.35
2022-11-16T09:00:11.755Z,33.50
2022-11-16T09:02:39.489Z,21.97
2022-11-16T09:05:08.543Z,25.10
2022-11-16T09:07:36.453Z,24.58
2022-11-16T09:10:05.027Z,34.60
2022-11-16T09:12:33.937Z,19.25
2022-11-16T09:15:02.124Z,23.83
2022-11-16T09:17:30.580Z,23.63
2022-11-16T09:19:58.785Z,31.48
2022-11-16T09:22:26.872Z,16.75
2022-11-16T09:24:54.876Z,17.80
2022-11-16T09:27:22.629Z,17.70
2022-11-16T09:29:51.287Z,19.40
2022-11-16T09:32:19.011Z,19.50
2022-11-16T09:34:47.086Z,16.80
2022-11-16T09:37:15.649Z,18.02
2022-11-16T09:39:43.675Z,17.90
2022-11-16T09:42:20.461Z,20.90
2022-11-16T09:44:58.801Z,16.52
2022-11-16T09:47:41.941Z,17.10
2022-11-16T09:50:25.699Z,16.85
2022-11-16T09:52:57.854Z,15.63
2022-11-16T09:55:46.646Z,15.13
2022-11-16T09:58:33.334Z,28.42
2022-11-16T10:01:19.980Z,19.60
2022-11-16T10:03:52.551Z,25.35
2022-11-16T10:06:24.417Z,23.43
2022-11-16T10:08:57.044Z,16.63
2022-11-16T10:11:32.060Z,15.00
2022-11-16T10:14:12.191Z,15.80
2022-11-16T10:17:10.269Z,15.82
2022-11-16T10:20:08.947Z,16.50
2022-11-16T10:23:14.592Z,16.50
2022-11-16T10:25:47.257Z,18.08
2022-11-16T10:29:00.443Z,25.85
2022-11-16T10:31:36.815Z,18.70
2022-11-16T10:34:09.595Z,17.93
2022-11-16T10:36:38.890Z,17.25
2022-11-16T10:39:13.977Z,18.58
2022-11-16T10:41:47.361Z,18.38
2022-11-16T10:44:38.662Z,16.83
2022-11-16T10:47:29.386Z,16.83
2022-11-16T10:50:03.602Z,17.77
2022-11-16T10:52:31.533Z,18.70
2022-11-16T10:54:59.569Z,16.77
2022-11-16T10:58:00.978Z,16.70
2022-11-16T11:00:49.396Z,15.77
2022-11-16T11:03:31.081Z,15.65
2022-11-16T11:05:59.440Z,17.25
2022-11-16T11:08:31.864Z,16.27
2022-11-16T11:11:25.706Z,16.02
2022-11-16T11:14:10.648Z,17.00
2022-11-16T11:16:39.471Z,22.40
2022-11-16T11:19:28.554Z,22.35
2022-11-16T11:22:00.921Z,17.15
2022-11-16T11:24:44.005Z,18.48
2022-11-16T11:27:21.098Z,18.00
2022-11-16T11:29:53.207Z,17.60
2022-11-16T11:32:24.641Z,19.75
2022-11-16T11:34:55.096Z,17.15
2022-11-16T11:37:37.500Z,17.50
2022-11-16T11:40:24.220Z,15.03
2022-11-16T11:43:00.667Z,16.23
2022-11-16T11:45:42.107Z,16.30
2022-11-16T11:48:32.836Z,17.67
2022-11-16T11:51:20.009Z,19.42
2022-11-16T11:53:53.369Z,17.03
2022-11-16T11:56:21.428Z,17.75
2022-11-16T11:58:50.523Z,22.90
2022-11-16T12:02:09.199Z,20.25
2022-11-16T12:04:57.299Z,16.85
2022-11-16T12:07:36.533Z,15.70
2022-11-16T12:10:41.899Z,16.70
2022-11-16T12:13:37.876Z,16.45
2022-11-16T12:16:19.259Z,16.75
2022-11-16T12:19:04.901Z,16.48
2022-11-16T12:21:38.977Z,22.23
2022-11-16T12:24:47.736Z,18.42
2022-11-16T12:27:32.335Z,16.70
2022-11-16T12:30:18.166Z,18.58
2022-11-16T12:32:57.657Z,16.75
2022-11-16T12:35:47.974Z,18.70
2022-11-16T12:38:47.763Z,18.85
2022-11-16T12:41:27.318Z,19.52
2022-11-16T12:44:03.225Z,23.20
2022-11-16T12:47:08.214Z,19.30
2022-11-16T12:50:02.571Z,34.80
2022-11-16T12:52:48.228Z,21.88
2022-11-16T12:55:42.717Z,19.13
2022-11-16T12:58:36.773Z,21.42
2022-11-16T13:01:37.483Z,18.92
2022-11-16T13:04:41.507Z,17.77
2022-11-16T13:07:28.847Z,18.02
2022-11-16T13:10:03.349Z,17.50
2022-11-16T13:12:32.959Z,17.48
2022-11-16T13:15:03.231Z,18.48
2022-11-16T13:17:38.782Z,21.40
2022-11-16T13:20:35.890Z,19.85
2022-11-16T13:23:25.789Z,19.67
2022-11-16T13:26:10.722Z,21.27
2022-11-16T13:28:59.886Z,23.33
2022-11-16T13:31:36.302Z,19.63
2022-11-16T13:34:14.909Z,20.08
2022-11-16T13:36:45.461Z,24.40
2022-11-16T13:39:22.608Z,24.45
2022-11-16T13:42:06.670Z,22.42
2022-11-16T13:44:35.295Z,20.07
2022-11-16T13:47:07.276Z,20.33
2022-11-16T13:49:51.042Z,18.25
2022-11-16T13:52:40.232Z,19.23
2022-11-16T13:55:32.442Z,20.27
2022-11-16T13:58:03.141Z,32.77
2022-11-16T14:00:34.870Z,23.17
2022-11-16T14:03:17.566Z,19.85
2022-11-16T14:05:47.638Z,39.88
2022-11-16T14:08:24.785Z,22.45
2022-11-16T14:10:52.829Z,20.83
2022-11-16T14:13:38.946Z,20.42
2022-11-16T14:16:22.348Z,23.88
2022-11-16T14:18:58.896Z,22.65
2022-11-16T14:21:51.820Z,26.05
2022-11-16T14:24:28.583Z,25.33
2022-11-16T14:27:06.275Z,24.42
2022-11-16T14:29:39.983Z,22.92
2022-11-16T14:32:24.471Z,23.85
2022-11-16T14:34:54.843Z,24.38
2022-11-16T14:37:22.886Z,23.70
2022-11-16T14:39:53.476Z,23.30
2022-11-16T14:42:54.302Z,21.23
2022-11-16T14:45:31.298Z,24.88
2022-11-16T14:48:19.874Z,22.35
2022-11-16T14:51:00.842Z,22.50
2022-11-16T14:53:31.028Z,21.20
2022-11-16T14:56:13.910Z,32.78
2022-11-16T14:59:02.469Z,26.40
2022-11-16T15:01:34.853Z,32.00
2022-11-16T15:04:07.225Z,39.00
2022-11-16T15:07:05.231Z,38.83
2022-11-16T15:09:34.485Z,32.67
2022-11-16T15:12:23.972Z,39.85
2022-11-16T15:14:58.218Z,30.38
2022-11-16T15:17:31.834Z,26.97
2022-11-16T15:20:04.806Z,24.88
2022-11-16T15:22:40.296Z,25.58
2022-11-16T15:25:56.727Z,28.27
2022-11-16T15:28:27.524Z,26.73
2022-11-16T15:30:59.236Z,26.87
2022-11-16T15:33:29.758Z,25.63
2022-11-16T15:35:58.357Z,29.27
2022-11-16T15:38:31.948Z,26.13
2022-11-16T15:41:03.021Z,28.73
2022-11-16T15:43:45.238Z,24.58
2022-11-16T15:46:26.321Z,25.30
2022-11-16T15:48:55.287Z,24.25
2022-11-16T15:51:23.960Z,26.00
2022-11-16T15:54:11.964Z,26.23
2022-11-16T15:56:40.835Z,27.67
2022-11-16T15:59:14.274Z,29.30
2022-11-16T16:01:44.973Z,27.83
2022-11-16T16:04:17.496Z,26.38
2022-11-16T16:06:52.756Z,24.83
2022-11-16T16:09:20.724Z,26.97
2022-11-16T16:11:49.015Z,27.50
2022-11-16T16:14:31.397Z,28.27
2022-11-16T16:17:00.797Z,30.02
2022-11-16T16:19:28.377Z,33.03
2022-11-16T16:21:58.763Z,29.90
2022-11-16T16:24:41.674Z,27.65
2022-11-16T16:27:18.929Z,51.60
2022-11-16T16:29:48.509Z,43.42
2022-11-16T16:32:29.567Z,32.15
2022-11-16T16:35:08.549Z,31.73
2022-11-16T16:37:37.052Z,32.90
2022-11-16T16:40:05.407Z,40.42
2022-11-16T16:42:34.018Z,53.97
2022-11-16T16:45:04.971Z,52.50
2022-11-16T16:47:34.410Z,46.75
2022-11-16T16:50:03.482Z,46.38
2022-11-16T16:52:32.411Z,46.50
2022-11-16T16:55:00.084Z,43.83
2022-11-16T16:57:28.722Z,45.88
2022-11-16T16:59:56.448Z,44.33
2022-11-16T17:02:25.903Z,40.30
2022-11-16T17:04:53.549Z,39.50
2022-11-16T17:07:22.227Z,42.47
2022-11-16T17:09:50.226Z,43.30
2022-11-16T17:12:18.959Z,47.43
2022-11-16T17:14:55.506Z,45.90
2022-11-16T17:17:24.829Z,55.08
2022-11-16T17:19:53.270Z,39.85
2022-11-16T17:22:21.834Z,35.65
2022-11-16T17:24:49.790Z,34.47
2022-11-16T17:27:17.769Z,35.75
2022-11-16T17:29:45.421Z,35.17
2022-11-16T17:32:13.489Z,33.10
2022-11-16T17:34:41.747Z,30.98
2022-11-16T17:37:09.825Z,30.53
2022-11-16T17:39:37.729Z,30.10
2022-11-16T17:42:05.947Z,30.25
2022-11-16T17:44:33.935Z,29.73
2022-11-16T17:47:03.511Z,31.98
2022-11-16T17:49:31.201Z,34.83
2022-11-16T17:51:59.170Z,36.58
2022-11-16T17:54:26.922Z,35.17
2022-11-16T17:56:54.771Z,32.10
2022-11-16T17:59:29.249Z,33.92
2022-11-16T18:01:58.450Z,33.57
2022-11-16T18:04:26.369Z,33.63
2022-11-16T18:06:56.189Z,32.28
2022-11-16T18:09:25.140Z,33.33
2022-11-16T18:11:53.521Z,34.15
2022-11-16T18:14:21.475Z,30.87
2022-11-16T18:16:49.883Z,30.70
2022-11-16T18:19:19.767Z,34.75
2022-11-16T18:21:49.227Z,33.70
2022-11-16T18:24:18.773Z,36.83
2022-11-16T18:26:46.932Z,47.47
2022-11-16T18:29:18.893Z,61.53
2022-11-16T18:31:48.341Z,63.83
2022-11-16T18:34:16.990Z,49.90
2022-11-16T18:36:46.711Z,48.60
2022-11-16T18:39:15.917Z,45.70
2022-11-16T18:41:53.267Z,45.85
2022-11-16T18:44:22.811Z,43.70
2022-11-16T18:46:51.135Z,43.30
2022-11-16T18:49:18.936Z,42.08
2022-11-16T18:51:46.927Z,42.70
2022-11-16T18:54:14.861Z,43.05
2022-11-16T18:56:42.990Z,41.63
2022-11-16T18:59:13.158Z,41.42
2022-11-16T19:01:41.813Z,39.60
2022-11-16T19:04:11.183Z,37.90
2022-11-16T19:06:39.554Z,39.45
2022-11-16T19:09:10.321Z,39.25
2022-11-16T19:11:38.571Z,36.67
2022-11-16T19:14:07.978Z,36.58
2022-11-16T19:16:36.810Z,38.33
2022-11-16T19:19:05.284Z,40.10
2022-11-16T19:21:33.395Z,42.42
2022-11-16T19:24:01.531Z,45.92
2022-11-16T19:26:30.233Z,40.97
2022-11-16T19:28:59.063Z,36.65
2022-11-16T19:31:29.165Z,42.10
2022-11-16T19:34:02.734Z,35.13
2022-11-16T19:36:32.213Z,33.95
2022-11-16T19:39:00.409Z,33.97
2022-11-16T19:41:29.060Z,32.07
2022-11-16T19:44:00.451Z,31.20
2022-11-16T19:46:33.098Z,33.17
2022-11-16T19:49:01.494Z,32.17
2022-11-16T19:51:31.353Z,31.02
2022-11-16T19:54:03.511Z,31.45
2022-11-16T19:56:32.224Z,31.08
2022-11-16T19:59:01.591Z,32.30
2022-11-16T20:01:29.966Z,31.33
2022-11-16T20:04:00.560Z,33.95
2022-11-16T20:06:31.799Z,35.67
2022-11-16T20:09:08.914Z,33.50
2022-11-16T20:11:38.885Z,35.28
2022-11-16T20:14:12.525Z,31.58
2022-11-16T20:16:42.897Z,32.55
2022-11-16T20:19:12.151Z,35.23
2022-11-16T20:21:42.326Z,36.72
2022-11-16T20:24:19.795Z,34.67
2022-11-16T20:26:49.412Z,32.60
2022-11-16T20:29:19.235Z,33.83
2022-11-16T20:31:47.614Z,34.60
2022-11-16T20:34:17.914Z,34.40
2022-11-16T20:36:47.512Z,40.50
2022-11-16T20:39:20.967Z,46.88
2022-11-16T20:41:49.354Z,43.15
2022-11-16T20:44:21.378Z,41.90
2022-11-16T20:46:50.868Z,44.10
2022-11-16T20:49:19.173Z,47.45
2022-11-16T20:51:51.450Z,47.08
2022-11-16T20:54:19.720Z,46.60
2022-11-16T20:56:49.835Z,47.20
2022-11-16T20:59:19.282Z,47.60
2022-11-16T21:01:48.992Z,47.33
2022-11-16T21:04:17.348Z,46.95
2022-11-16T21:06:45.318Z,46.65
2022-11-16T21:09:22.770Z,36.77
2022-11-16T21:12:11.047Z,38.38
2022-11-16T21:14:39.139Z,41.63
2022-11-16T21:17:06.871Z,47.28
2022-11-16T21:19:35.185Z,49.35
2022-11-16T21:22:02.820Z,53.27
2022-11-16T21:24:32.461Z,55.78
2022-11-16T21:27:01.002Z,65.90
2022-11-16T21:29:29.582Z,65.40
2022-11-16T21:31:57.477Z,73.18
2022-11-16T21:34:28.228Z,65.47
2022-11-16T21:36:58.049Z,55.45
2022-11-16T21:39:29.067Z,47.95
2022-11-16T21:41:56.999Z,46.42
2022-11-16T21:44:25.249Z,46.17
2022-11-16T21:46:54.548Z,39.87
2022-11-16T21:49:22.553Z,39.72
2022-11-16T21:51:50.730Z,39.38
2022-11-16T21:54:20.322Z,37.67
2022-11-16T21:56:48.105Z,41.25
2022-11-16T21:59:19.343Z,41.30
2022-11-16T22:02:01.392Z,43.08
2022-11-16T22:04:48.767Z,39.53
2022-11-16T22:07:35.873Z,39.10
2022-11-16T22:10:08.828Z,36.35
2022-11-16T22:12:38.125Z,35.93
2022-11-16T22:15:08.790Z,38.78
2022-11-16T22:17:41.611Z,42.53
2022-11-16T22:20:12.199Z,49.00
2022-11-16T22:22:40.723Z,46.55
2022-11-16T22:25:09.777Z,46.63
2022-11-16T22:27:52.369Z,44.90
2022-11-16T22:30:27.890Z,42.92
2022-11-16T22:32:55.499Z,40.80
2022-11-16T22:35:23.592Z,35.80
2022-11-16T22:37:51.269Z,34.97
2022-11-16T22:40:19.397Z,37.92
2022-11-16T22:42:47.006Z,39.78
2022-11-16T22:45:15.190Z,40.50
2022-11-16T22:47:43.077Z,39.40
2022-11-16T22:50:12.182Z,39.17
2022-11-16T22:52:39.895Z,40.75
2022-11-16T22:55:08.457Z,39.15
2022-11-16T22:57:36.058Z,45.53
2022-11-16T23:00:06.067Z,49.03
2022-11-16T23:02:33.886Z,42.90
2022-11-16T23:05:01.988Z,41.58
2022-11-16T23:07:29.937Z,40.25
2022-11-16T23:09:57.979Z,39.72
2022-11-16T23:12:44.156Z,41.60
2022-11-16T23:15:31.893Z,40.37
2022-11-16T23:17:59.924Z,40.45
2022-11-16T23:20:46.142Z,39.00
2022-11-16T23:23:38.924Z,40.45
2022-11-16T23:26:33.181Z,38.33
2022-11-16T23:29:03.499Z,40.67
2022-11-16T23:31:31.603Z,40.03
2022-11-16T23:33:59.258Z,42.33
2022-11-16T23:36:27.494Z,40.38
2022-11-16T23:38:55.098Z,38.80
2022-11-16T23:41:41.727Z,40.73
2022-11-16T23:44:09.455Z,42.22
2022-11-16T23:46:37.433Z,41.33
2022-11-16T23:49:05.228Z,44.03
2022-11-16T23:51:33.211Z,44.72
2022-11-16T23:54:01.031Z,42.70
2022-11-16T23:56:29.318Z,43.63
2022-11-16T23:58:59.782Z,44.33
